sensor_id;sensor_type;location;lat;lon;timestamp;P1;durP1;ratioP1;P2;durP2;ratioP2
69588;SDS011;56792;50.644;17.984;2023-02-18T00:02:11;4.80;;;1.80;;
69588;SDS011;56792;50.644;17.984;2023-02-18T00:04:43;4.60;;;2.00;;
69588;SDS011;56792;50.644;17.984;2023-02-18T00:07:17;4.80;;;2.10;;
69588;SDS011;56792;50.644;17.984;2023-02-18T00:09:49;4.70;;;2.00;;
69588;SDS011;56792;50.644;17.984;2023-02-18T00:12:22;3.40;;;1.70;;
69588;SDS011;56792;50.644;17.984;2023-02-18T00:14:54;4.80;;;2.00;;
69588;SDS011;56792;50.644;17.984;2023-02-18T00:17:27;4.40;;;2.00;;
69588;SDS011;56792;50.644;17.984;2023-02-18T00:20:00;4.10;;;1.80;;
69588;SDS011;56792;50.644;17.984;2023-02-18T00:22:32;5.60;;;1.90;;
69588;SDS011;56792;50.644;17.984;2023-02-18T00:25:05;5.70;;;2.20;;
69588;SDS011;56792;50.644;17.984;2023-02-18T00:27:38;4.50;;;1.90;;
69588;SDS011;56792;50.644;17.984;2023-02-18T00:30:11;5.20;;;1.80;;
69588;SDS011;56792;50.644;17.984;2023-02-18T00:32:44;5.10;;;1.80;;
69588;SDS011;56792;50.644;17.984;2023-02-18T00:35:16;4.50;;;1.70;;
69588;SDS011;56792;50.644;17.984;2023-02-18T00:37:51;5.00;;;2.00;;
69588;SDS011;56792;50.644;17.984;2023-02-18T00:40:23;5.90;;;2.20;;
69588;SDS011;56792;50.644;17.984;2023-02-18T00:42:56;4.70;;;2.00;;
69588;SDS011;56792;50.644;17.984;2023-02-18T00:45:28;4.40;;;1.50;;
69588;SDS011;56792;50.644;17.984;2023-02-18T00:48:00;3.70;;;1.60;;
69588;SDS011;56792;50.644;17.984;2023-02-18T00:50:32;4.50;;;1.60;;
69588;SDS011;56792;50.644;17.984;2023-02-18T00:53:05;4.10;;;1.50;;
69588;SDS011;56792;50.644;17.984;2023-02-18T00:55:40;4.10;;;1.50;;
69588;SDS011;56792;50.644;17.984;2023-02-18T00:58:15;4.30;;;1.10;;
69588;SDS011;56792;50.644;17.984;2023-02-18T01:00:48;5.40;;;1.60;;
69588;SDS011;56792;50.644;17.984;2023-02-18T01:03:20;2.50;;;1.10;;
69588;SDS011;56792;50.644;17.984;2023-02-18T01:05:54;2.30;;;1.00;;
69588;SDS011;56792;50.644;17.984;2023-02-18T01:08:27;3.30;;;1.40;;
69588;SDS011;56792;50.644;17.984;2023-02-18T01:11:00;3.20;;;1.40;;
69588;SDS011;56792;50.644;17.984;2023-02-18T01:13:33;2.80;;;1.10;;
69588;SDS011;56792;50.644;17.984;2023-02-18T01:16:08;3.90;;;1.10;;
69588;SDS011;56792;50.644;17.984;2023-02-18T01:18:41;2.80;;;1.10;;
69588;SDS011;56792;50.644;17.984;2023-02-18T01:21:13;2.60;;;1.00;;
69588;SDS011;56792;50.644;17.984;2023-02-18T01:23:45;2.70;;;1.10;;
69588;SDS011;56792;50.644;17.984;2023-02-18T01:26:19;5.00;;;1.40;;
69588;SDS011;56792;50.644;17.984;2023-02-18T01:28:51;3.70;;;1.50;;
69588;SDS011;56792;50.644;17.984;2023-02-18T01:31:23;3.80;;;1.70;;
69588;SDS011;56792;50.644;17.984;2023-02-18T01:33:55;4.30;;;1.70;;
69588;SDS011;56792;50.644;17.984;2023-02-18T01:36:30;4.10;;;1.50;;
69588;SDS011;56792;50.644;17.984;2023-02-18T01:39:03;2.90;;;1.00;;
69588;SDS011;56792;50.644;17.984;2023-02-18T01:41:35;3.80;;;1.40;;
69588;SDS011;56792;50.644;17.984;2023-02-18T01:44:18;4.70;;;1.40;;
69588;SDS011;56792;50.644;17.984;2023-02-18T01:46:52;2.40;;;1.10;;
69588;SDS011;56792;50.644;17.984;2023-02-18T01:49:33;2.90;;;1.30;;
69588;SDS011;56792;50.644;17.984;2023-02-18T01:52:10;6.50;;;1.70;;
69588;SDS011;56792;50.644;17.984;2023-02-18T01:54:49;4.70;;;1.30;;
69588;SDS011;56792;50.644;17.984;2023-02-18T01:57:26;4.90;;;1.30;;
69588;SDS011;56792;50.644;17.984;2023-02-18T02:00:06;3.50;;;1.30;;
69588;SDS011;56792;50.644;17.984;2023-02-18T02:02:46;5.00;;;1.50;;
69588;SDS011;56792;50.644;17.984;2023-02-18T02:05:21;4.90;;;1.10;;
69588;SDS011;56792;50.644;17.984;2023-02-18T02:07:55;3.60;;;1.30;;
69588;SDS011;56792;50.644;17.984;2023-02-18T02:10:39;2.70;;;1.10;;
69588;SDS011;56792;50.644;17.984;2023-02-18T02:13:24;3.30;;;1.50;;
69588;SDS011;56792;50.644;17.984;2023-02-18T02:16:07;3.60;;;1.30;;
69588;SDS011;56792;50.644;17.984;2023-02-18T02:18:57;3.00;;;1.40;;
69588;SDS011;56792;50.644;17.984;2023-02-18T02:22:02;3.20;;;1.40;;
69588;SDS011;56792;50.644;17.984;2023-02-18T02:24:57;4.90;;;1.20;;
69588;SDS011;56792;50.644;17.984;2023-02-18T02:27:56;3.30;;;1.30;;
69588;SDS011;56792;50.644;17.984;2023-02-18T02:34:38;4.10;;;1.30;;
69588;SDS011;56792;50.644;17.984;2023-02-18T02:37:21;3.00;;;0.80;;
69588;SDS011;56792;50.644;17.984;2023-02-18T02:40:09;2.10;;;0.90;;
69588;SDS011;56792;50.644;17.984;2023-02-18T02:43:02;2.70;;;1.00;;
69588;SDS011;56792;50.644;17.984;2023-02-18T02:45:46;2.50;;;1.10;;
69588;SDS011;56792;50.644;17.984;2023-02-18T02:48:41;3.90;;;1.60;;
69588;SDS011;56792;50.644;17.984;2023-02-18T02:51:19;3.30;;;1.50;;
69588;SDS011;56792;50.644;17.984;2023-02-18T02:54:09;3.40;;;1.20;;
69588;SDS011;56792;50.644;17.984;2023-02-18T02:56:43;3.10;;;1.20;;
69588;SDS011;56792;50.644;17.984;2023-02-18T02:59:19;3.10;;;1.20;;
69588;SDS011;56792;50.644;17.984;2023-02-18T03:02:10;3.50;;;1.40;;
69588;SDS011;56792;50.644;17.984;2023-02-18T03:05:12;3.00;;;1.10;;
69588;SDS011;56792;50.644;17.984;2023-02-18T03:08:26;2.70;;;1.20;;
69588;SDS011;56792;50.644;17.984;2023-02-18T03:11:08;3.80;;;1.50;;
69588;SDS011;56792;50.644;17.984;2023-02-18T03:13:52;3.00;;;1.30;;
69588;SDS011;56792;50.644;17.984;2023-02-18T03:16:40;3.60;;;1.40;;
69588;SDS011;56792;50.644;17.984;2023-02-18T03:19:21;3.30;;;1.20;;
69588;SDS011;56792;50.644;17.984;2023-02-18T03:22:02;3.60;;;1.10;;
69588;SDS011;56792;50.644;17.984;2023-02-18T03:24:41;4.40;;;1.10;;
69588;SDS011;56792;50.644;17.984;2023-02-18T03:27:23;2.70;;;1.10;;
69588;SDS011;56792;50.644;17.984;2023-02-18T03:30:04;3.10;;;1.50;;
69588;SDS011;56792;50.644;17.984;2023-02-18T03:32:41;4.00;;;1.50;;
69588;SDS011;56792;50.644;17.984;2023-02-18T03:35:17;3.70;;;1.70;;
69588;SDS011;56792;50.644;17.984;2023-02-18T03:37:52;3.40;;;1.40;;
69588;SDS011;56792;50.644;17.984;2023-02-18T03:40:32;4.10;;;1.10;;
69588;SDS011;56792;50.644;17.984;2023-02-18T03:43:04;3.40;;;1.60;;
69588;SDS011;56792;50.644;17.984;2023-02-18T03:45:37;2.70;;;1.40;;
69588;SDS011;56792;50.644;17.984;2023-02-18T03:48:09;3.00;;;1.30;;
69588;SDS011;56792;50.644;17.984;2023-02-18T03:50:42;2.70;;;0.90;;
69588;SDS011;56792;50.644;17.984;2023-02-18T03:53:14;3.70;;;1.20;;
69588;SDS011;56792;50.644;17.984;2023-02-18T03:55:47;3.90;;;1.20;;
69588;SDS011;56792;50.644;17.984;2023-02-18T03:58:19;3.00;;;1.10;;
69588;SDS011;56792;50.644;17.984;2023-02-18T04:00:51;2.80;;;1.20;;
69588;SDS011;56792;50.644;17.984;2023-02-18T04:03:23;2.80;;;1.30;;
69588;SDS011;56792;50.644;17.984;2023-02-18T04:05:55;2.70;;;1.10;;
69588;SDS011;56792;50.644;17.984;2023-02-18T04:08:28;3.60;;;0.80;;
69588;SDS011;56792;50.644;17.984;2023-02-18T04:11:00;2.60;;;0.90;;
69588;SDS011;56792;50.644;17.984;2023-02-18T04:13:34;2.70;;;0.90;;
69588;SDS011;56792;50.644;17.984;2023-02-18T04:16:08;4.00;;;0.90;;
69588;SDS011;56792;50.644;17.984;2023-02-18T04:18:40;3.00;;;0.90;;
69588;SDS011;56792;50.644;17.984;2023-02-18T04:21:12;5.50;;;1.30;;
69588;SDS011;56792;50.644;17.984;2023-02-18T04:23:44;2.80;;;1.00;;
69588;SDS011;56792;50.644;17.984;2023-02-18T04:26:16;2.70;;;1.10;;
69588;SDS011;56792;50.644;17.984;2023-02-18T04:28:49;2.70;;;1.20;;
69588;SDS011;56792;50.644;17.984;2023-02-18T04:31:21;3.20;;;1.00;;
69588;SDS011;56792;50.644;17.984;2023-02-18T04:33:54;2.10;;;1.00;;
69588;SDS011;56792;50.644;17.984;2023-02-18T04:36:26;2.50;;;0.90;;
69588;SDS011;56792;50.644;17.984;2023-02-18T04:38:59;3.00;;;1.00;;
69588;SDS011;56792;50.644;17.984;2023-02-18T04:41:31;3.50;;;1.30;;
69588;SDS011;56792;50.644;17.984;2023-02-18T04:44:03;3.50;;;1.30;;
69588;SDS011;56792;50.644;17.984;2023-02-18T04:46:36;6.40;;;1.90;;
69588;SDS011;56792;50.644;17.984;2023-02-18T04:49:08;3.90;;;1.10;;
69588;SDS011;56792;50.644;17.984;2023-02-18T04:51:41;3.10;;;1.20;;
69588;SDS011;56792;50.644;17.984;2023-02-18T04:54:13;2.60;;;1.20;;
69588;SDS011;56792;50.644;17.984;2023-02-18T04:56:45;2.80;;;1.10;;
69588;SDS011;56792;50.644;17.984;2023-02-18T04:59:17;1.90;;;0.80;;
69588;SDS011;56792;50.644;17.984;2023-02-18T05:01:50;2.80;;;1.00;;
69588;SDS011;56792;50.644;17.984;2023-02-18T05:04:22;2.00;;;1.10;;
69588;SDS011;56792;50.644;17.984;2023-02-18T05:06:55;3.20;;;1.00;;
69588;SDS011;56792;50.644;17.984;2023-02-18T05:09:29;2.60;;;0.70;;
69588;SDS011;56792;50.644;17.984;2023-02-18T05:12:01;3.20;;;1.20;;
69588;SDS011;56792;50.644;17.984;2023-02-18T05:14:34;3.40;;;1.30;;
69588;SDS011;56792;50.644;17.984;2023-02-18T05:17:06;3.70;;;1.20;;
69588;SDS011;56792;50.644;17.984;2023-02-18T05:19:40;1.70;;;0.70;;
69588;SDS011;56792;50.644;17.984;2023-02-18T05:22:12;2.50;;;1.00;;
69588;SDS011;56792;50.644;17.984;2023-02-18T05:24:44;2.80;;;0.90;;
69588;SDS011;56792;50.644;17.984;2023-02-18T05:27:17;2.80;;;0.90;;
69588;SDS011;56792;50.644;17.984;2023-02-18T05:29:49;2.90;;;0.90;;
69588;SDS011;56792;50.644;17.984;2023-02-18T05:32:21;3.10;;;1.10;;
69588;SDS011;56792;50.644;17.984;2023-02-18T05:34:55;2.70;;;0.90;;
69588;SDS011;56792;50.644;17.984;2023-02-18T05:37:28;2.50;;;1.10;;
69588;SDS011;56792;50.644;17.984;2023-02-18T05:40:00;2.20;;;0.90;;
69588;SDS011;56792;50.644;17.984;2023-02-18T05:42:32;2.30;;;1.00;;
69588;SDS011;56792;50.644;17.984;2023-02-18T05:45:07;4.70;;;1.70;;
69588;SDS011;56792;50.644;17.984;2023-02-18T05:47:40;4.00;;;1.60;;
69588;SDS011;56792;50.644;17.984;2023-02-18T05:50:12;3.60;;;1.40;;
69588;SDS011;56792;50.644;17.984;2023-02-18T05:52:44;2.80;;;1.00;;
69588;SDS011;56792;50.644;17.984;2023-02-18T05:55:17;3.90;;;2.70;;
69588;SDS011;56792;50.644;17.984;2023-02-18T05:57:49;2.40;;;1.10;;
69588;SDS011;56792;50.644;17.984;2023-02-18T06:00:22;2.80;;;1.20;;
69588;SDS011;56792;50.644;17.984;2023-02-18T06:02:54;3.00;;;1.10;;
69588;SDS011;56792;50.644;17.984;2023-02-18T06:05:26;3.10;;;1.10;;
69588;SDS011;56792;50.644;17.984;2023-02-18T06:07:59;9.30;;;3.70;;
69588;SDS011;56792;50.644;17.984;2023-02-18T06:10:32;3.80;;;2.10;;
69588;SDS011;56792;50.644;17.984;2023-02-18T06:13:04;4.00;;;3.10;;
69588;SDS011;56792;50.644;17.984;2023-02-18T06:15:36;5.20;;;3.20;;
69588;SDS011;56792;50.644;17.984;2023-02-18T06:18:08;4.30;;;2.80;;
69588;SDS011;56792;50.644;17.984;2023-02-18T06:20:41;3.50;;;2.40;;
69588;SDS011;56792;50.644;17.984;2023-02-18T06:23:13;4.10;;;1.70;;
69588;SDS011;56792;50.644;17.984;2023-02-18T06:25:48;6.30;;;2.70;;
69588;SDS011;56792;50.644;17.984;2023-02-18T06:28:21;11.30;;;4.30;;
69588;SDS011;56792;50.644;17.984;2023-02-18T06:30:53;16.00;;;8.40;;
69588;SDS011;56792;50.644;17.984;2023-02-18T06:33:26;13.30;;;6.80;;
69588;SDS011;56792;50.644;17.984;2023-02-18T06:36:02;11.30;;;5.80;;
69588;SDS011;56792;50.644;17.984;2023-02-18T06:38:42;8.00;;;4.20;;
69588;SDS011;56792;50.644;17.984;2023-02-18T06:41:18;7.70;;;4.50;;
69588;SDS011;56792;50.644;17.984;2023-02-18T06:43:50;6.30;;;3.20;;
69588;SDS011;56792;50.644;17.984;2023-02-18T06:46:22;5.30;;;1.90;;
69588;SDS011;56792;50.644;17.984;2023-02-18T06:48:55;5.10;;;2.00;;
69588;SDS011;56792;50.644;17.984;2023-02-18T06:51:27;12.20;;;3.40;;
69588;SDS011;56792;50.644;17.984;2023-02-18T06:53:59;11.30;;;3.70;;
69588;SDS011;56792;50.644;17.984;2023-02-18T06:56:32;7.90;;;2.60;;
69588;SDS011;56792;50.644;17.984;2023-02-18T06:59:04;7.00;;;2.00;;
69588;SDS011;56792;50.644;17.984;2023-02-18T07:01:37;8.40;;;2.90;;
69588;SDS011;56792;50.644;17.984;2023-02-18T07:04:10;6.50;;;2.40;;
69588;SDS011;56792;50.644;17.984;2023-02-18T07:06:43;6.40;;;2.10;;
69588;SDS011;56792;50.644;17.984;2023-02-18T07:09:19;4.80;;;2.00;;
69588;SDS011;56792;50.644;17.984;2023-02-18T07:11:52;6.60;;;2.10;;
69588;SDS011;56792;50.644;17.984;2023-02-18T07:14:24;8.70;;;2.30;;
69588;SDS011;56792;50.644;17.984;2023-02-18T07:16:57;4.70;;;2.00;;
69588;SDS011;56792;50.644;17.984;2023-02-18T07:19:30;10.20;;;3.20;;
69588;SDS011;56792;50.644;17.984;2023-02-18T07:22:02;5.00;;;1.70;;
69588;SDS011;56792;50.644;17.984;2023-02-18T07:24:35;4.90;;;1.90;;
69588;SDS011;56792;50.644;17.984;2023-02-18T07:27:07;4.10;;;1.40;;
69588;SDS011;56792;50.644;17.984;2023-02-18T07:29:39;5.70;;;2.10;;
69588;SDS011;56792;50.644;17.984;2023-02-18T07:32:13;6.60;;;2.90;;
69588;SDS011;56792;50.644;17.984;2023-02-18T07:34:47;5.90;;;2.70;;
69588;SDS011;56792;50.644;17.984;2023-02-18T07:37:23;6.00;;;1.60;;
69588;SDS011;56792;50.644;17.984;2023-02-18T07:39:56;5.30;;;2.10;;
69588;SDS011;56792;50.644;17.984;2023-02-18T07:42:29;4.00;;;1.40;;
69588;SDS011;56792;50.644;17.984;2023-02-18T07:45:02;5.20;;;1.80;;
69588;SDS011;56792;50.644;17.984;2023-02-18T07:47:36;5.40;;;2.10;;
69588;SDS011;56792;50.644;17.984;2023-02-18T07:50:11;5.00;;;1.40;;
69588;SDS011;56792;50.644;17.984;2023-02-18T07:52:44;6.50;;;2.60;;
69588;SDS011;56792;50.644;17.984;2023-02-18T07:55:17;15.40;;;4.60;;
69588;SDS011;56792;50.644;17.984;2023-02-18T07:57:49;10.70;;;4.30;;
69588;SDS011;56792;50.644;17.984;2023-02-18T08:00:30;4.80;;;2.10;;
69588;SDS011;56792;50.644;17.984;2023-02-18T08:03:02;8.40;;;3.00;;
69588;SDS011;56792;50.644;17.984;2023-02-18T08:05:34;8.70;;;3.50;;
69588;SDS011;56792;50.644;17.984;2023-02-18T08:08:07;5.90;;;2.40;;
69588;SDS011;56792;50.644;17.984;2023-02-18T08:10:42;8.00;;;3.70;;
69588;SDS011;56792;50.644;17.984;2023-02-18T08:13:15;6.10;;;2.70;;
69588;SDS011;56792;50.644;17.984;2023-02-18T08:15:47;5.30;;;1.80;;
69588;SDS011;56792;50.644;17.984;2023-02-18T08:18:21;3.40;;;1.20;;
69588;SDS011;56792;50.644;17.984;2023-02-18T08:20:54;5.40;;;1.40;;
69588;SDS011;56792;50.644;17.984;2023-02-18T08:23:27;3.40;;;1.20;;
69588;SDS011;56792;50.644;17.984;2023-02-18T08:25:59;4.30;;;1.80;;
69588;SDS011;56792;50.644;17.984;2023-02-18T08:28:31;4.80;;;3.10;;
69588;SDS011;56792;50.644;17.984;2023-02-18T08:31:05;4.80;;;1.50;;
69588;SDS011;56792;50.644;17.984;2023-02-18T08:33:45;4.30;;;1.70;;
69588;SDS011;56792;50.644;17.984;2023-02-18T08:36:18;3.90;;;1.30;;
69588;SDS011;56792;50.644;17.984;2023-02-18T08:38:52;5.80;;;1.40;;
69588;SDS011;56792;50.644;17.984;2023-02-18T08:41:25;5.30;;;1.10;;
69588;SDS011;56792;50.644;17.984;2023-02-18T08:43:58;6.00;;;1.90;;
69588;SDS011;56792;50.644;17.984;2023-02-18T08:46:30;4.30;;;1.30;;
69588;SDS011;56792;50.644;17.984;2023-02-18T08:49:02;3.60;;;1.60;;
69588;SDS011;56792;50.644;17.984;2023-02-18T08:51:35;3.70;;;1.10;;
69588;SDS011;56792;50.644;17.984;2023-02-18T08:54:08;4.50;;;1.30;;
69588;SDS011;56792;50.644;17.984;2023-02-18T08:56:41;4.50;;;1.40;;
69588;SDS011;56792;50.644;17.984;2023-02-18T08:59:14;3.00;;;1.30;;
69588;SDS011;56792;50.644;17.984;2023-02-18T09:01:47;4.10;;;1.20;;
69588;SDS011;56792;50.644;17.984;2023-02-18T09:04:20;5.90;;;1.40;;
69588;SDS011;56792;50.644;17.984;2023-02-18T09:06:52;3.40;;;1.40;;
69588;SDS011;56792;50.644;17.984;2023-02-18T09:09:26;5.20;;;2.00;;
69588;SDS011;56792;50.644;17.984;2023-02-18T09:11:59;5.30;;;2.10;;
69588;SDS011;56792;50.644;17.984;2023-02-18T09:14:32;6.30;;;3.10;;
69588;SDS011;56792;50.644;17.984;2023-02-18T09:17:06;8.60;;;6.30;;
69588;SDS011;56792;50.644;17.984;2023-02-18T09:19:38;4.10;;;1.50;;
69588;SDS011;56792;50.644;17.984;2023-02-18T09:22:11;10.30;;;4.20;;
69588;SDS011;56792;50.644;17.984;2023-02-18T09:24:46;12.20;;;5.50;;
69588;SDS011;56792;50.644;17.984;2023-02-18T09:27:19;10.10;;;4.20;;
69588;SDS011;56792;50.644;17.984;2023-02-18T09:29:53;6.40;;;2.90;;
69588;SDS011;56792;50.644;17.984;2023-02-18T09:32:26;8.70;;;2.80;;
69588;SDS011;56792;50.644;17.984;2023-02-18T09:34:58;8.30;;;2.40;;
69588;SDS011;56792;50.644;17.984;2023-02-18T09:37:31;6.20;;;2.30;;
69588;SDS011;56792;50.644;17.984;2023-02-18T09:40:07;4.00;;;2.10;;
69588;SDS011;56792;50.644;17.984;2023-02-18T09:42:50;7.70;;;2.10;;
69588;SDS011;56792;50.644;17.984;2023-02-18T09:45:24;6.00;;;2.00;;
69588;SDS011;56792;50.644;17.984;2023-02-18T09:47:58;5.20;;;1.50;;
69588;SDS011;56792;50.644;17.984;2023-02-18T09:50:34;3.70;;;1.40;;
69588;SDS011;56792;50.644;17.984;2023-02-18T09:53:09;5.80;;;1.90;;
69588;SDS011;56792;50.644;17.984;2023-02-18T09:55:43;5.40;;;1.80;;
69588;SDS011;56792;50.644;17.984;2023-02-18T09:58:20;4.40;;;1.40;;
69588;SDS011;56792;50.644;17.984;2023-02-18T10:01:04;3.60;;;1.60;;
69588;SDS011;56792;50.644;17.984;2023-02-18T10:03:44;4.80;;;1.60;;
69588;SDS011;56792;50.644;17.984;2023-02-18T10:06:20;3.80;;;1.50;;
69588;SDS011;56792;50.644;17.984;2023-02-18T10:08:55;6.40;;;2.10;;
69588;SDS011;56792;50.644;17.984;2023-02-18T10:11:38;6.60;;;2.50;;
69588;SDS011;56792;50.644;17.984;2023-02-18T10:14:16;6.10;;;1.60;;
69588;SDS011;56792;50.644;17.984;2023-02-18T10:16:51;5.70;;;1.90;;
69588;SDS011;56792;50.644;17.984;2023-02-18T10:19:28;4.60;;;1.60;;
69588;SDS011;56792;50.644;17.984;2023-02-18T10:22:05;4.90;;;2.20;;
69588;SDS011;56792;50.644;17.984;2023-02-18T10:24:41;5.70;;;2.00;;
69588;SDS011;56792;50.644;17.984;2023-02-18T10:27:22;5.90;;;2.10;;
69588;SDS011;56792;50.644;17.984;2023-02-18T10:30:08;5.10;;;2.20;;
69588;SDS011;56792;50.644;17.984;2023-02-18T10:32:54;4.00;;;1.60;;
69588;SDS011;56792;50.644;17.984;2023-02-18T10:35:34;5.40;;;2.10;;
69588;SDS011;56792;50.644;17.984;2023-02-18T10:38:17;4.90;;;1.90;;
69588;SDS011;56792;50.644;17.984;2023-02-18T10:41:06;5.70;;;2.60;;
69588;SDS011;56792;50.644;17.984;2023-02-18T10:43:50;8.00;;;2.80;;
69588;SDS011;56792;50.644;17.984;2023-02-18T10:46:36;11.20;;;4.90;;
69588;SDS011;56792;50.644;17.984;2023-02-18T10:49:33;10.60;;;4.20;;
69588;SDS011;56792;50.644;17.984;2023-02-18T10:52:20;8.40;;;2.70;;
69588;SDS011;56792;50.644;17.984;2023-02-18T10:54:57;8.60;;;2.40;;
69588;SDS011;56792;50.644;17.984;2023-02-18T10:57:32;6.60;;;2.00;;
69588;SDS011;56792;50.644;17.984;2023-02-18T11:00:19;4.50;;;1.70;;
69588;SDS011;56792;50.644;17.984;2023-02-18T11:03:09;5.90;;;1.80;;
69588;SDS011;56792;50.644;17.984;2023-02-18T11:05:47;6.70;;;2.30;;
69588;SDS011;56792;50.644;17.984;2023-02-18T11:08:25;6.00;;;2.60;;
69588;SDS011;56792;50.644;17.984;2023-02-18T11:11:11;5.00;;;2.10;;
69588;SDS011;56792;50.644;17.984;2023-02-18T11:13:53;7.00;;;2.20;;
69588;SDS011;56792;50.644;17.984;2023-02-18T11:16:39;6.50;;;2.70;;
69588;SDS011;56792;50.644;17.984;2023-02-18T11:19:33;6.10;;;2.10;;
69588;SDS011;56792;50.644;17.984;2023-02-18T11:22:17;7.40;;;2.80;;
69588;SDS011;56792;50.644;17.984;2023-02-18T11:24:55;7.80;;;2.70;;
69588;SDS011;56792;50.644;17.984;2023-02-18T11:27:42;7.50;;;2.00;;
69588;SDS011;56792;50.644;17.984;2023-02-18T11:30:21;3.60;;;1.60;;
69588;SDS011;56792;50.644;17.984;2023-02-18T11:32:57;5.60;;;2.10;;
69588;SDS011;56792;50.644;17.984;2023-02-18T11:35:34;5.70;;;2.00;;
69588;SDS011;56792;50.644;17.984;2023-02-18T11:38:23;5.20;;;2.20;;
69588;SDS011;56792;50.644;17.984;2023-02-18T11:41:05;5.60;;;1.90;;
69588;SDS011;56792;50.644;17.984;2023-02-18T11:43:42;6.00;;;2.20;;
69588;SDS011;56792;50.644;17.984;2023-02-18T11:46:19;5.60;;;2.50;;
69588;SDS011;56792;50.644;17.984;2023-02-18T11:48:53;5.30;;;2.00;;
69588;SDS011;56792;50.644;17.984;2023-02-18T11:51:33;5.80;;;2.50;;
69588;SDS011;56792;50.644;17.984;2023-02-18T11:54:24;6.00;;;2.00;;
69588;SDS011;56792;50.644;17.984;2023-02-18T11:57:01;4.20;;;1.60;;
69588;SDS011;56792;50.644;17.984;2023-02-18T11:59:38;6.10;;;2.20;;
69588;SDS011;56792;50.644;17.984;2023-02-18T12:02:29;5.10;;;2.10;;
69588;SDS011;56792;50.644;17.984;2023-02-18T12:05:10;5.20;;;2.30;;
69588;SDS011;56792;50.644;17.984;2023-02-18T12:07:48;6.30;;;2.50;;
69588;SDS011;56792;50.644;17.984;2023-02-18T12:10:30;6.20;;;3.20;;
69588;SDS011;56792;50.644;17.984;2023-02-18T12:13:11;7.20;;;3.60;;
69588;SDS011;56792;50.644;17.984;2023-02-18T12:15:59;8.70;;;3.40;;
69588;SDS011;56792;50.644;17.984;2023-02-18T12:19:09;7.60;;;3.10;;
69588;SDS011;56792;50.644;17.984;2023-02-18T12:21:56;21.40;;;12.70;;
69588;SDS011;56792;50.644;17.984;2023-02-18T12:24:47;17.80;;;9.00;;
69588;SDS011;56792;50.644;17.984;2023-02-18T12:27:37;10.10;;;5.50;;
69588;SDS011;56792;50.644;17.984;2023-02-18T12:33:36;8.30;;;3.70;;
69588;SDS011;56792;50.644;17.984;2023-02-18T12:36:30;7.70;;;3.10;;
69588;SDS011;56792;50.644;17.984;2023-02-18T12:39:26;11.70;;;6.30;;
69588;SDS011;56792;50.644;17.984;2023-02-18T12:42:25;25.90;;;11.30;;
69588;SDS011;56792;50.644;17.984;2023-02-18T12:45:29;26.10;;;11.70;;
69588;SDS011;56792;50.644;17.984;2023-02-18T12:48:33;23.20;;;10.30;;
69588;SDS011;56792;50.644;17.984;2023-02-18T12:51:28;27.60;;;10.10;;
69588;SDS011;56792;50.644;17.984;2023-02-18T12:57:35;13.30;;;5.50;;
69588;SDS011;56792;50.644;17.984;2023-02-18T13:00:46;8.90;;;3.90;;
69588;SDS011;56792;50.644;17.984;2023-02-18T13:03:47;26.80;;;10.00;;
69588;SDS011;56792;50.644;17.984;2023-02-18T13:07:00;10.90;;;3.80;;
69588;SDS011;56792;50.644;17.984;2023-02-18T13:09:57;9.50;;;3.80;;
69588;SDS011;56792;50.644;17.984;2023-02-18T13:12:50;20.30;;;10.10;;
69588;SDS011;56792;50.644;17.984;2023-02-18T13:15:35;13.80;;;5.20;;
69588;SDS011;56792;50.644;17.984;2023-02-18T13:18:13;13.70;;;5.10;;
69588;SDS011;56792;50.644;17.984;2023-02-18T13:20:53;10.30;;;4.70;;
69588;SDS011;56792;50.644;17.984;2023-02-18T13:23:31;7.90;;;3.00;;
69588;SDS011;56792;50.644;17.984;2023-02-18T13:26:12;7.60;;;2.70;;
69588;SDS011;56792;50.644;17.984;2023-02-18T13:28:57;6.10;;;2.30;;
69588;SDS011;56792;50.644;17.984;2023-02-18T13:31:49;6.10;;;3.00;;
69588;SDS011;56792;50.644;17.984;2023-02-18T13:34:34;6.60;;;3.00;;
69588;SDS011;56792;50.644;17.984;2023-02-18T13:37:19;6.70;;;3.10;;
69588;SDS011;56792;50.644;17.984;2023-02-18T13:39:58;5.50;;;2.70;;
69588;SDS011;56792;50.644;17.984;2023-02-18T13:42:37;6.60;;;3.60;;
69588;SDS011;56792;50.644;17.984;2023-02-18T13:45:35;8.00;;;3.30;;
69588;SDS011;56792;50.644;17.984;2023-02-18T13:48:24;10.50;;;3.70;;
69588;SDS011;56792;50.644;17.984;2023-02-18T13:51:03;7.70;;;3.80;;
69588;SDS011;56792;50.644;17.984;2023-02-18T13:53:40;10.60;;;3.70;;
69588;SDS011;56792;50.644;17.984;2023-02-18T13:56:33;7.70;;;3.50;;
69588;SDS011;56792;50.644;17.984;2023-02-18T13:59:16;8.20;;;3.50;;
69588;SDS011;56792;50.644;17.984;2023-02-18T14:01:53;8.20;;;3.80;;
69588;SDS011;56792;50.644;17.984;2023-02-18T14:04:54;10.40;;;4.10;;
69588;SDS011;56792;50.644;17.984;2023-02-18T14:07:45;8.20;;;4.60;;
69588;SDS011;56792;50.644;17.984;2023-02-18T14:10:32;9.00;;;4.20;;
69588;SDS011;56792;50.644;17.984;2023-02-18T14:13:25;9.30;;;5.00;;
69588;SDS011;56792;50.644;17.984;2023-02-18T14:16:11;15.90;;;8.90;;
69588;SDS011;56792;50.644;17.984;2023-02-18T14:19:02;18.40;;;10.90;;
69588;SDS011;56792;50.644;17.984;2023-02-18T14:22:27;25.90;;;13.90;;
69588;SDS011;56792;50.644;17.984;2023-02-18T14:25:15;39.00;;;22.90;;
69588;SDS011;56792;50.644;17.984;2023-02-18T14:27:54;35.50;;;19.80;;
69588;SDS011;56792;50.644;17.984;2023-02-18T14:30:37;23.10;;;12.20;;
69588;SDS011;56792;50.644;17.984;2023-02-18T14:33:18;36.30;;;21.80;;
69588;SDS011;56792;50.644;17.984;2023-02-18T14:35:59;24.70;;;12.50;;
69588;SDS011;56792;50.644;17.984;2023-02-18T14:38:44;23.50;;;12.50;;
69588;SDS011;56792;50.644;17.984;2023-02-18T14:41:41;25.10;;;14.80;;
69588;SDS011;56792;50.644;17.984;2023-02-18T14:44:31;22.30;;;13.60;;
69588;SDS011;56792;50.644;17.984;2023-02-18T14:47:26;18.90;;;9.60;;
69588;SDS011;56792;50.644;17.984;2023-02-18T14:50:12;27.10;;;11.70;;
69588;SDS011;56792;50.644;17.984;2023-02-18T14:52:52;22.60;;;10.90;;
69588;SDS011;56792;50.644;17.984;2023-02-18T14:56:01;22.90;;;14.20;;
69588;SDS011;56792;50.644;17.984;2023-02-18T14:58:40;27.70;;;14.40;;
69588;SDS011;56792;50.644;17.984;2023-02-18T15:01:20;22.80;;;12.60;;
69588;SDS011;56792;50.644;17.984;2023-02-18T15:03:59;25.20;;;12.80;;
69588;SDS011;56792;50.644;17.984;2023-02-18T15:06:35;17.50;;;10.20;;
69588;SDS011;56792;50.644;17.984;2023-02-18T15:09:19;30.00;;;16.20;;
69588;SDS011;56792;50.644;17.984;2023-02-18T15:12:01;26.10;;;14.30;;
69588;SDS011;56792;50.644;17.984;2023-02-18T15:14:37;18.70;;;10.50;;
69588;SDS011;56792;50.644;17.984;2023-02-18T15:17:18;21.60;;;12.40;;
69588;SDS011;56792;50.644;17.984;2023-02-18T15:19:57;25.80;;;16.10;;
69588;SDS011;56792;50.644;17.984;2023-02-18T15:22:37;24.60;;;15.30;;
69588;SDS011;56792;50.644;17.984;2023-02-18T15:25:14;21.50;;;12.20;;
69588;SDS011;56792;50.644;17.984;2023-02-18T15:27:53;21.70;;;13.90;;
69588;SDS011;56792;50.644;17.984;2023-02-18T15:30:29;26.80;;;15.10;;
69588;SDS011;56792;50.644;17.984;2023-02-18T15:33:12;22.70;;;11.80;;
69588;SDS011;56792;50.644;17.984;2023-02-18T15:35:48;24.30;;;13.50;;
69588;SDS011;56792;50.644;17.984;2023-02-18T15:38:23;26.80;;;13.30;;
69588;SDS011;56792;50.644;17.984;2023-02-18T15:41:00;22.40;;;12.30;;
69588;SDS011;56792;50.644;17.984;2023-02-18T15:43:38;23.40;;;12.10;;
69588;SDS011;56792;50.644;17.984;2023-02-18T15:46:22;24.90;;;15.20;;
69588;SDS011;56792;50.644;17.984;2023-02-18T15:49:00;28.50;;;17.20;;